sensor_id;sensor_type;location;lat;lon;timestamp;P1;durP1;ratioP1;P2;durP2;ratioP2
59169;SDS011;52474;52.236;5.114;2023-04-01T00:00:49;29.85;;;11.50;;
59169;SDS011;52474;52.236;5.114;2023-04-01T00:03:16;44.40;;;13.00;;
59169;SDS011;52474;52.236;5.114;2023-04-01T00:05:42;41.78;;;12.13;;
59169;SDS011;52474;52.236;5.114;2023-04-01T00:08:07;34.13;;;11.88;;
59169;SDS011;52474;52.236;5.114;2023-04-01T00:10:33;35.42;;;12.75;;
59169;SDS011;52474;52.236;5.114;2023-04-01T00:12:59;45.08;;;12.90;;
59169;SDS011;52474;52.236;5.114;2023-04-01T00:15:25;39.58;;;14.48;;
59169;SDS011;52474;52.236;5.114;2023-04-01T00:17:51;38.08;;;13.05;;
59169;SDS011;52474;52.236;5.114;2023-04-01T00:20:16;40.70;;;12.73;;
59169;SDS011;52474;52.236;5.114;2023-04-01T00:22:42;44.40;;;13.48;;
59169;SDS011;52474;52.236;5.114;2023-04-01T00:25:08;38.97;;;13.40;;
59169;SDS011;52474;52.236;5.114;2023-04-01T00:27:34;36.10;;;12.38;;
59169;SDS011;52474;52.236;5.114;2023-04-01T00:30:00;40.53;;;13.50;;
59169;SDS011;52474;52.236;5.114;2023-04-01T00:32:27;49.28;;;14.95;;
59169;SDS011;52474;52.236;5.114;2023-04-01T00:34:52;55.83;;;16.33;;
59169;SDS011;52474;52.236;5.114;2023-04-01T00:37:19;42.78;;;14.80;;
59169;SDS011;52474;52.236;5.114;2023-04-01T00:39:46;61.17;;;15.43;;
59169;SDS011;52474;52.236;5.114;2023-04-01T00:42:11;49.53;;;14.68;;
59169;SDS011;52474;52.236;5.114;2023-04-01T00:44:38;54.75;;;15.40;;
59169;SDS011;52474;52.236;5.114;2023-04-01T00:47:04;49.67;;;15.50;;
59169;SDS011;52474;52.236;5.114;2023-04-01T00:49:30;61.88;;;15.32;;
59169;SDS011;52474;52.236;5.114;2023-04-01T00:52:02;53.63;;;14.55;;
59169;SDS011;52474;52.236;5.114;2023-04-01T00:54:30;46.35;;;15.57;;
59169;SDS011;52474;52.236;5.114;2023-04-01T00:56:58;41.50;;;11.68;;
59169;SDS011;52474;52.236;5.114;2023-04-01T00:59:29;31.75;;;10.57;;
59169;SDS011;52474;52.236;5.114;2023-04-01T01:01:59;32.25;;;10.68;;
59169;SDS011;52474;52.236;5.114;2023-04-01T01:04:27;39.25;;;10.93;;
59169;SDS011;52474;52.236;5.114;2023-04-01T01:09:47;33.92;;;9.95;;
59169;SDS011;52474;52.236;5.114;2023-04-01T01:12:20;37.00;;;10.23;;
59169;SDS011;52474;52.236;5.114;2023-04-01T01:20:48;27.48;;;8.68;;
59169;SDS011;52474;52.236;5.114;2023-04-01T01:31:59;24.80;;;6.75;;
59169;SDS011;52474;52.236;5.114;2023-04-01T01:34:47;19.60;;;5.50;;
59169;SDS011;52474;52.236;5.114;2023-04-01T01:37:22;18.52;;;5.55;;
59169;SDS011;52474;52.236;5.114;2023-04-01T01:39:52;20.55;;;6.15;;
59169;SDS011;52474;52.236;5.114;2023-04-01T01:42:22;17.88;;;5.75;;
59169;SDS011;52474;52.236;5.114;2023-04-01T01:44:52;16.23;;;5.25;;
59169;SDS011;52474;52.236;5.114;2023-04-01T01:47:20;18.02;;;5.35;;
59169;SDS011;52474;52.236;5.114;2023-04-01T01:49:47;17.85;;;5.80;;
59169;SDS011;52474;52.236;5.114;2023-04-01T01:52:14;19.27;;;5.65;;
59169;SDS011;52474;52.236;5.114;2023-04-01T01:54:49;17.65;;;5.88;;
59169;SDS011;52474;52.236;5.114;2023-04-01T01:57:16;17.73;;;5.82;;
59169;SDS011;52474;52.236;5.114;2023-04-01T01:59:48;21.55;;;5.60;;
59169;SDS011;52474;52.236;5.114;2023-04-01T02:02:23;17.13;;;5.75;;
59169;SDS011;52474;52.236;5.114;2023-04-01T02:04:51;18.98;;;6.07;;
59169;SDS011;52474;52.236;5.114;2023-04-01T02:07:19;23.45;;;7.63;;
59169;SDS011;52474;52.236;5.114;2023-04-01T02:09:51;20.73;;;7.10;;
59169;SDS011;52474;52.236;5.114;2023-04-01T02:12:17;22.17;;;7.47;;
59169;SDS011;52474;52.236;5.114;2023-04-01T02:14:57;23.40;;;7.22;;
59169;SDS011;52474;52.236;5.114;2023-04-01T02:17:30;23.80;;;7.15;;
59169;SDS011;52474;52.236;5.114;2023-04-01T02:20:00;18.90;;;6.72;;
59169;SDS011;52474;52.236;5.114;2023-04-01T02:22:48;19.98;;;7.18;;
59169;SDS011;52474;52.236;5.114;2023-04-01T02:25:29;22.13;;;6.60;;
59169;SDS011;52474;52.236;5.114;2023-04-01T02:27:59;19.63;;;7.30;;
59169;SDS011;52474;52.236;5.114;2023-04-01T02:30:26;23.83;;;8.70;;
59169;SDS011;52474;52.236;5.114;2023-04-01T02:32:55;30.23;;;9.05;;
59169;SDS011;52474;52.236;5.114;2023-04-01T02:35:22;35.67;;;10.30;;
59169;SDS011;52474;52.236;5.114;2023-04-01T02:37:49;29.80;;;11.85;;
59169;SDS011;52474;52.236;5.114;2023-04-01T02:40:17;29.67;;;11.95;;
59169;SDS011;52474;52.236;5.114;2023-04-01T02:42:44;38.42;;;12.77;;
59169;SDS011;52474;52.236;5.114;2023-04-01T02:45:11;33.53;;;12.40;;
59169;SDS011;52474;52.236;5.114;2023-04-01T02:47:37;42.95;;;13.20;;
59169;SDS011;52474;52.236;5.114;2023-04-01T02:50:03;37.10;;;13.32;;
59169;SDS011;52474;52.236;5.114;2023-04-01T02:52:32;38.42;;;12.65;;
59169;SDS011;52474;52.236;5.114;2023-04-01T02:55:00;40.60;;;13.48;;
59169;SDS011;52474;52.236;5.114;2023-04-01T02:57:26;42.38;;;12.88;;
59169;SDS011;52474;52.236;5.114;2023-04-01T02:59:51;40.90;;;13.45;;
59169;SDS011;52474;52.236;5.114;2023-04-01T03:02:17;47.00;;;14.02;;
59169;SDS011;52474;52.236;5.114;2023-04-01T03:04:43;50.88;;;13.88;;
59169;SDS011;52474;52.236;5.114;2023-04-01T03:07:09;44.92;;;14.00;;
59169;SDS011;52474;52.236;5.114;2023-04-01T03:09:38;48.22;;;12.70;;
59169;SDS011;52474;52.236;5.114;2023-04-01T03:12:04;49.65;;;13.35;;
59169;SDS011;52474;52.236;5.114;2023-04-01T03:14:35;53.63;;;14.00;;
59169;SDS011;52474;52.236;5.114;2023-04-01T03:17:01;50.55;;;13.25;;
59169;SDS011;52474;52.236;5.114;2023-04-01T03:19:27;45.38;;;12.65;;
59169;SDS011;52474;52.236;5.114;2023-04-01T03:21:53;47.70;;;12.38;;
59169;SDS011;52474;52.236;5.114;2023-04-01T03:24:19;43.58;;;12.65;;
59169;SDS011;52474;52.236;5.114;2023-04-01T03:26:46;50.58;;;11.65;;
59169;SDS011;52474;52.236;5.114;2023-04-01T03:29:12;37.30;;;11.43;;
59169;SDS011;52474;52.236;5.114;2023-04-01T03:31:43;42.22;;;12.50;;
59169;SDS011;52474;52.236;5.114;2023-04-01T03:34:08;50.92;;;13.07;;
59169;SDS011;52474;52.236;5.114;2023-04-01T03:36:35;43.67;;;12.95;;
59169;SDS011;52474;52.236;5.114;2023-04-01T03:39:00;45.17;;;12.70;;
59169;SDS011;52474;52.236;5.114;2023-04-01T03:41:35;36.50;;;10.02;;
59169;SDS011;52474;52.236;5.114;2023-04-01T03:44:02;25.38;;;7.88;;
59169;SDS011;52474;52.236;5.114;2023-04-01T03:46:28;21.98;;;7.13;;
59169;SDS011;52474;52.236;5.114;2023-04-01T03:48:54;25.80;;;6.55;;
59169;SDS011;52474;52.236;5.114;2023-04-01T03:51:20;15.32;;;5.20;;
59169;SDS011;52474;52.236;5.114;2023-04-01T03:53:46;16.33;;;5.80;;
59169;SDS011;52474;52.236;5.114;2023-04-01T03:56:11;15.45;;;4.75;;
59169;SDS011;52474;52.236;5.114;2023-04-01T03:58:37;13.88;;;4.88;;
59169;SDS011;52474;52.236;5.114;2023-04-01T04:01:19;10.25;;;4.15;;
59169;SDS011;52474;52.236;5.114;2023-04-01T04:03:48;12.15;;;4.15;;
59169;SDS011;52474;52.236;5.114;2023-04-01T04:06:15;11.82;;;3.88;;
59169;SDS011;52474;52.236;5.114;2023-04-01T04:08:42;9.85;;;3.47;;
59169;SDS011;52474;52.236;5.114;2023-04-01T04:11:09;10.57;;;3.85;;
59169;SDS011;52474;52.236;5.114;2023-04-01T04:13:39;11.82;;;4.05;;
59169;SDS011;52474;52.236;5.114;2023-04-01T04:16:06;10.65;;;3.80;;
59169;SDS011;52474;52.236;5.114;2023-04-01T04:18:34;14.60;;;5.07;;
59169;SDS011;52474;52.236;5.114;2023-04-01T04:20:59;8.63;;;3.22;;
59169;SDS011;52474;52.236;5.114;2023-04-01T04:23:25;10.02;;;4.13;;
59169;SDS011;52474;52.236;5.114;2023-04-01T04:25:53;10.55;;;4.05;;
59169;SDS011;52474;52.236;5.114;2023-04-01T04:28:23;10.55;;;4.10;;
59169;SDS011;52474;52.236;5.114;2023-04-01T04:30:50;10.70;;;4.47;;
59169;SDS011;52474;52.236;5.114;2023-04-01T04:33:16;11.95;;;4.40;;
59169;SDS011;52474;52.236;5.114;2023-04-01T04:35:42;11.30;;;4.82;;
59169;SDS011;52474;52.236;5.114;2023-04-01T04:38:08;9.98;;;4.55;;
59169;SDS011;52474;52.236;5.114;2023-04-01T04:40:36;11.57;;;4.57;;
59169;SDS011;52474;52.236;5.114;2023-04-01T04:43:02;12.13;;;4.72;;
59169;SDS011;52474;52.236;5.114;2023-04-01T04:45:29;10.63;;;4.20;;
59169;SDS011;52474;52.236;5.114;2023-04-01T04:47:56;14.45;;;5.35;;
59169;SDS011;52474;52.236;5.114;2023-04-01T04:50:22;12.00;;;4.60;;
59169;SDS011;52474;52.236;5.114;2023-04-01T04:52:49;15.55;;;6.07;;
59169;SDS011;52474;52.236;5.114;2023-04-01T04:55:16;14.98;;;5.68;;
59169;SDS011;52474;52.236;5.114;2023-04-01T04:57:45;15.45;;;5.93;;
59169;SDS011;52474;52.236;5.114;2023-04-01T05:00:11;14.65;;;5.88;;
59169;SDS011;52474;52.236;5.114;2023-04-01T05:02:46;13.02;;;5.22;;
59169;SDS011;52474;52.236;5.114;2023-04-01T05:05:12;14.15;;;5.32;;
59169;SDS011;52474;52.236;5.114;2023-04-01T05:07:38;13.45;;;5.28;;
59169;SDS011;52474;52.236;5.114;2023-04-01T05:10:04;14.18;;;5.85;;
59169;SDS011;52474;52.236;5.114;2023-04-01T05:12:30;17.52;;;6.40;;
59169;SDS011;52474;52.236;5.114;2023-04-01T05:15:00;17.05;;;6.10;;
59169;SDS011;52474;52.236;5.114;2023-04-01T05:17:27;12.63;;;5.65;;
59169;SDS011;52474;52.236;5.114;2023-04-01T05:19:53;13.07;;;6.20;;
59169;SDS011;52474;52.236;5.114;2023-04-01T05:22:19;14.63;;;6.05;;
59169;SDS011;52474;52.236;5.114;2023-04-01T05:24:45;15.25;;;6.00;;
59169;SDS011;52474;52.236;5.114;2023-04-01T05:27:11;16.48;;;6.65;;
59169;SDS011;52474;52.236;5.114;2023-04-01T05:29:39;15.43;;;5.78;;
59169;SDS011;52474;52.236;5.114;2023-04-01T05:32:08;15.25;;;5.97;;
59169;SDS011;52474;52.236;5.114;2023-04-01T05:34:34;14.93;;;6.57;;
59169;SDS011;52474;52.236;5.114;2023-04-01T05:37:00;18.45;;;6.72;;
59169;SDS011;52474;52.236;5.114;2023-04-01T05:39:26;13.10;;;5.90;;
59169;SDS011;52474;52.236;5.114;2023-04-01T05:41:52;16.48;;;6.70;;
59169;SDS011;52474;52.236;5.114;2023-04-01T05:44:18;18.60;;;6.20;;
59169;SDS011;52474;52.236;5.114;2023-04-01T05:47:19;14.32;;;5.35;;
59169;SDS011;52474;52.236;5.114;2023-04-01T05:49:44;14.98;;;6.20;;
59169;SDS011;52474;52.236;5.114;2023-04-01T05:52:10;16.20;;;6.38;;
59169;SDS011;52474;52.236;5.114;2023-04-01T05:54:36;14.63;;;5.65;;
59169;SDS011;52474;52.236;5.114;2023-04-01T05:57:02;16.88;;;7.07;;
59169;SDS011;52474;52.236;5.114;2023-04-01T05:59:28;15.45;;;5.30;;
59169;SDS011;52474;52.236;5.114;2023-04-01T06:01:56;17.65;;;6.07;;
59169;SDS011;52474;52.236;5.114;2023-04-01T06:04:22;12.52;;;5.25;;
59169;SDS011;52474;52.236;5.114;2023-04-01T06:06:49;16.20;;;5.70;;
59169;SDS011;52474;52.236;5.114;2023-04-01T06:09:16;15.75;;;5.90;;
59169;SDS011;52474;52.236;5.114;2023-04-01T06:20:37;9.23;;;4.47;;
59169;SDS011;52474;52.236;5.114;2023-04-01T06:29:16;12.98;;;4.90;;
59169;SDS011;52474;52.236;5.114;2023-04-01T06:38:01;11.95;;;4.15;;
59169;SDS011;52474;52.236;5.114;2023-04-01T06:55:42;13.27;;;5.07;;
59169;SDS011;52474;52.236;5.114;2023-04-01T06:58:46;18.75;;;6.28;;
59169;SDS011;52474;52.236;5.114;2023-04-01T07:01:20;16.13;;;6.18;;
59169;SDS011;52474;52.236;5.114;2023-04-01T07:07:00;21.55;;;6.38;;
59169;SDS011;52474;52.236;5.114;2023-04-01T07:09:37;16.42;;;5.43;;
59169;SDS011;52474;52.236;5.114;2023-04-01T07:12:43;18.38;;;6.20;;
59169;SDS011;52474;52.236;5.114;2023-04-01T07:15:53;16.58;;;5.75;;
59169;SDS011;52474;52.236;5.114;2023-04-01T07:21:15;18.98;;;6.38;;
59169;SDS011;52474;52.236;5.114;2023-04-01T07:23:51;19.23;;;6.70;;
59169;SDS011;52474;52.236;5.114;2023-04-01T07:26:41;18.98;;;7.15;;
59169;SDS011;52474;52.236;5.114;2023-04-01T07:29:13;24.13;;;8.50;;
59169;SDS011;52474;52.236;5.114;2023-04-01T07:34:32;19.08;;;6.45;;
59169;SDS011;52474;52.236;5.114;2023-04-01T07:42:24;20.15;;;7.50;;
59169;SDS011;52474;52.236;5.114;2023-04-01T07:50:39;25.13;;;9.38;;
59169;SDS011;52474;52.236;5.114;2023-04-01T07:53:38;28.90;;;9.15;;
59169;SDS011;52474;52.236;5.114;2023-04-01T08:13:34;24.05;;;7.88;;
59169;SDS011;52474;52.236;5.114;2023-04-01T08:22:51;18.85;;;7.55;;
59169;SDS011;52474;52.236;5.114;2023-04-01T08:25:33;23.77;;;8.40;;
59169;SDS011;52474;52.236;5.114;2023-04-01T08:28:04;18.10;;;7.32;;
59169;SDS011;52474;52.236;5.114;2023-04-01T08:30:40;22.27;;;8.07;;
59169;SDS011;52474;52.236;5.114;2023-04-01T08:33:18;25.08;;;7.35;;
59169;SDS011;52474;52.236;5.114;2023-04-01T08:36:12;20.40;;;8.10;;
59169;SDS011;52474;52.236;5.114;2023-04-01T08:38:53;18.98;;;7.05;;
59169;SDS011;52474;52.236;5.114;2023-04-01T08:44:40;16.40;;;6.43;;
59169;SDS011;52474;52.236;5.114;2023-04-01T08:52:33;13.35;;;5.93;;
59169;SDS011;52474;52.236;5.114;2023-04-01T08:55:25;12.85;;;6.18;;
59169;SDS011;52474;52.236;5.114;2023-04-01T09:03:47;14.75;;;5.68;;
59169;SDS011;52474;52.236;5.114;2023-04-01T09:17:36;15.27;;;6.05;;
59169;SDS011;52474;52.236;5.114;2023-04-01T09:20:17;15.00;;;6.25;;
59169;SDS011;52474;52.236;5.114;2023-04-01T09:27:56;15.50;;;5.82;;
59169;SDS011;52474;52.236;5.114;2023-04-01T09:35:59;15.25;;;5.80;;
59169;SDS011;52474;52.236;5.114;2023-04-01T09:41:35;16.15;;;6.50;;
59169;SDS011;52474;52.236;5.114;2023-04-01T09:45:04;17.10;;;6.97;;
59169;SDS011;52474;52.236;5.114;2023-04-01T09:50:14;17.58;;;7.35;;
59169;SDS011;52474;52.236;5.114;2023-04-01T10:08:43;14.00;;;5.75;;
59169;SDS011;52474;52.236;5.114;2023-04-01T10:14:51;16.15;;;6.35;;
59169;SDS011;52474;52.236;5.114;2023-04-01T10:17:30;17.20;;;7.05;;
59169;SDS011;52474;52.236;5.114;2023-04-01T10:20:30;17.10;;;7.07;;
59169;SDS011;52474;52.236;5.114;2023-04-01T10:31:47;15.50;;;6.70;;
59169;SDS011;52474;52.236;5.114;2023-04-01T10:34:23;15.40;;;7.07;;
59169;SDS011;52474;52.236;5.114;2023-04-01T10:40:00;12.70;;;5.70;;
59169;SDS011;52474;52.236;5.114;2023-04-01T11:07:57;8.40;;;4.20;;
59169;SDS011;52474;52.236;5.114;2023-04-01T11:11:01;8.32;;;4.50;;
59169;SDS011;52474;52.236;5.114;2023-04-01T11:16:11;9.45;;;4.50;;
59169;SDS011;52474;52.236;5.114;2023-04-01T11:19:34;9.57;;;4.50;;
59169;SDS011;52474;52.236;5.114;2023-04-01T11:27:55;10.40;;;5.10;;
59169;SDS011;52474;52.236;5.114;2023-04-01T11:30:43;10.68;;;5.88;;
59169;SDS011;52474;52.236;5.114;2023-04-01T11:33:34;13.52;;;7.38;;
59169;SDS011;52474;52.236;5.114;2023-04-01T11:36:11;12.40;;;6.63;;
59169;SDS011;52474;52.236;5.114;2023-04-01T11:39:03;16.10;;;7.97;;
59169;SDS011;52474;52.236;5.114;2023-04-01T11:44:35;18.35;;;8.73;;
59169;SDS011;52474;52.236;5.114;2023-04-01T11:47:43;19.98;;;8.82;;
59169;SDS011;52474;52.236;5.114;2023-04-01T11:53:12;21.35;;;8.55;;
59169;SDS011;52474;52.236;5.114;2023-04-01T11:55:50;20.02;;;9.02;;
59169;SDS011;52474;52.236;5.114;2023-04-01T12:06:51;18.55;;;8.98;;
59169;SDS011;52474;52.236;5.114;2023-04-01T12:15:20;23.33;;;9.80;;
59169;SDS011;52474;52.236;5.114;2023-04-01T12:17:58;21.60;;;10.23;;
59169;SDS011;52474;52.236;5.114;2023-04-01T12:20:56;20.25;;;9.80;;
59169;SDS011;52474;52.236;5.114;2023-04-01T12:23:40;20.70;;;10.18;;
59169;SDS011;52474;52.236;5.114;2023-04-01T12:37:35;14.73;;;6.38;;
59169;SDS011;52474;52.236;5.114;2023-04-01T12:40:17;13.98;;;6.85;;
59169;SDS011;52474;52.236;5.114;2023-04-01T12:42:59;12.90;;;6.40;;
59169;SDS011;52474;52.236;5.114;2023-04-01T12:51:09;14.75;;;7.28;;
59169;SDS011;52474;52.236;5.114;2023-04-01T12:56:19;13.75;;;7.35;;
59169;SDS011;52474;52.236;5.114;2023-04-01T13:08:14;10.18;;;5.43;;
59169;SDS011;52474;52.236;5.114;2023-04-01T13:11:02;9.90;;;5.28;;
59169;SDS011;52474;52.236;5.114;2023-04-01T13:16:39;8.20;;;5.30;;
59169;SDS011;52474;52.236;5.114;2023-04-01T13:22:12;9.20;;;5.85;;
59169;SDS011;52474;52.236;5.114;2023-04-01T13:32:36;10.25;;;5.60;;
59169;SDS011;52474;52.236;5.114;2023-04-01T13:38:11;10.00;;;5.88;;
59169;SDS011;52474;52.236;5.114;2023-04-01T13:43:45;12.23;;;6.03;;
59169;SDS011;52474;52.236;5.114;2023-04-01T13:46:22;11.25;;;6.43;;
59169;SDS011;52474;52.236;5.114;2023-04-01T13:49:23;13.82;;;7.20;;
59169;SDS011;52474;52.236;5.114;2023-04-01T13:52:16;11.63;;;6.80;;
59169;SDS011;52474;52.236;5.114;2023-04-01T13:55:00;11.10;;;6.60;;
59169;SDS011;52474;52.236;5.114;2023-04-01T14:00:32;10.18;;;6.68;;
59169;SDS011;52474;52.236;5.114;2023-04-01T14:05:42;12.90;;;6.70;;
59169;SDS011;52474;52.236;5.114;2023-04-01T14:11:07;13.10;;;7.05;;
59169;SDS011;52474;52.236;5.114;2023-04-01T14:13:47;15.25;;;7.45;;
59169;SDS011;52474;52.236;5.114;2023-04-01T14:16:26;11.00;;;6.32;;
59169;SDS011;52474;52.236;5.114;2023-04-01T14:27:52;12.02;;;6.50;;
59169;SDS011;52474;52.236;5.114;2023-04-01T14:30:26;13.43;;;6.97;;
59169;SDS011;52474;52.236;5.114;2023-04-01T14:41:21;11.90;;;6.55;;
59169;SDS011;52474;52.236;5.114;2023-04-01T14:44:10;13.60;;;6.57;;
59169;SDS011;52474;52.236;5.114;2023-04-01T14:49:46;12.85;;;6.63;;
59169;SDS011;52474;52.236;5.114;2023-04-01T14:52:30;12.00;;;6.50;;
59169;SDS011;52474;52.236;5.114;2023-04-01T14:55:01;12.25;;;6.10;;
59169;SDS011;52474;52.236;5.114;2023-04-01T15:14:26;12.30;;;6.45;;
59169;SDS011;52474;52.236;5.114;2023-04-01T15:17:14;10.32;;;5.95;;
59169;SDS011;52474;52.236;5.114;2023-04-01T15:32:00;10.30;;;5.93;;
59169;SDS011;52474;52.236;5.114;2023-04-01T15:43:20;9.57;;;5.68;;
59169;SDS011;52474;52.236;5.114;2023-04-01T15:56:53;10.65;;;5.55;;
59169;SDS011;52474;52.236;5.114;2023-04-01T16:02:10;8.68;;;5.57;;
59169;SDS011;52474;52.236;5.114;2023-04-01T16:04:52;10.32;;;6.30;;
59169;SDS011;52474;52.236;5.114;2023-04-01T16:07:27;16.10;;;6.90;;
59169;SDS011;52474;52.236;5.114;2023-04-01T16:21:45;8.95;;;5.80;;
59169;SDS011;52474;52.236;5.114;2023-04-01T16:29:41;6.55;;;4.53;;
59169;SDS011;52474;52.236;5.114;2023-04-01T16:32:23;5.65;;;3.47;;
59169;SDS011;52474;52.236;5.114;2023-04-01T16:35:05;6.03;;;3.47;;
59169;SDS011;52474;52.236;5.114;2023-04-01T16:37:52;8.52;;;5.18;;
59169;SDS011;52474;52.236;5.114;2023-04-01T16:43:44;10.57;;;6.82;;
59169;SDS011;52474;52.236;5.114;2023-04-01T16:48:59;8.18;;;4.65;;
59169;SDS011;52474;52.236;5.114;2023-04-01T16:51:44;7.55;;;4.80;;
59169;SDS011;52474;52.236;5.114;2023-04-01T16:56:55;6.15;;;4.38;;
59169;SDS011;52474;52.236;5.114;2023-04-01T16:59:38;7.22;;;5.18;;
59169;SDS011;52474;52.236;5.114;2023-04-01T17:02:16;7.32;;;5.75;;
59169;SDS011;52474;52.236;5.114;2023-04-01T17:05:03;7.63;;;5.40;;
59169;SDS011;52474;52.236;5.114;2023-04-01T17:15:50;7.53;;;4.95;;
59169;SDS011;52474;52.236;5.114;2023-04-01T17:21:46;8.70;;;5.50;;
59169;SDS011;52474;52.236;5.114;2023-04-01T17:25:13;5.97;;;4.20;;
59169;SDS011;52474;52.236;5.114;2023-04-01T17:27:58;5.63;;;3.78;;
59169;SDS011;52474;52.236;5.114;2023-04-01T17:30:42;5.57;;;3.72;;
59169;SDS011;52474;52.236;5.114;2023-04-01T17:36:09;4.82;;;3.85;;
59169;SDS011;52474;52.236;5.114;2023-04-01T17:44:38;7.35;;;4.55;;
59169;SDS011;52474;52.236;5.114;2023-04-01T17:58:46;5.18;;;3.58;;
59169;SDS011;52474;52.236;5.114;2023-04-01T18:01:29;5.82;;;4.15;;
59169;SDS011;52474;52.236;5.114;2023-04-01T18:12:31;5.60;;;4.25;;
59169;SDS011;52474;52.236;5.114;2023-04-01T18:15:06;6.72;;;4.13;;
59169;SDS011;52474;52.236;5.114;2023-04-01T18:23:04;6.25;;;4.25;;
59169;SDS011;52474;52.236;5.114;2023-04-01T18:25:41;7.63;;;5.25;;
59169;SDS011;52474;52.236;5.114;2023-04-01T18:28:33;5.20;;;4.18;;
59169;SDS011;52474;52.236;5.114;2023-04-01T18:33:46;6.88;;;4.93;;
59169;SDS011;52474;52.236;5.114;2023-04-01T18:36:16;7.27;;;5.47;;
59169;SDS011;52474;52.236;5.114;2023-04-01T18:38:53;8.68;;;6.80;;
59169;SDS011;52474;52.236;5.114;2023-04-01T18:53:00;8.27;;;5.82;;
59169;SDS011;52474;52.236;5.114;2023-04-01T18:55:42;10.50;;;6.70;;
59169;SDS011;52474;52.236;5.114;2023-04-01T18:58:29;8.50;;;5.90;;
59169;SDS011;52474;52.236;5.114;2023-04-01T19:08:51;10.68;;;7.72;;
59169;SDS011;52474;52.236;5.114;2023-04-01T19:11:31;11.65;;;7.10;;
59169;SDS011;52474;52.236;5.114;2023-04-01T19:15:20;11.98;;;8.32;;
59169;SDS011;52474;52.236;5.114;2023-04-01T19:17:44;10.48;;;8.10;;
59169;SDS011;52474;52.236;5.114;2023-04-01T19:43:33;10.13;;;7.22;;
59169;SDS011;52474;52.236;5.114;2023-04-01T19:51:21;9.90;;;6.45;;
59169;SDS011;52474;52.236;5.114;2023-04-01T19:53:52;14.13;;;8.20;;
59169;SDS011;52474;52.236;5.114;2023-04-01T19:59:43;11.45;;;7.00;;
59169;SDS011;52474;52.236;5.114;2023-04-01T20:04:42;14.23;;;9.82;;
59169;SDS011;52474;52.236;5.114;2023-04-01T20:10:15;12.02;;;7.20;;
59169;SDS011;52474;52.236;5.114;2023-04-01T20:13:02;10.65;;;6.97;;
59169;SDS011;52474;52.236;5.114;2023-04-01T20:15:46;12.73;;;7.13;;
59169;SDS011;52474;52.236;5.114;2023-04-01T20:18:26;15.32;;;9.60;;
59169;SDS011;52474;52.236;5.114;2023-04-01T20:21:45;11.15;;;7.55;;
59169;SDS011;52474;52.236;5.114;2023-04-01T20:26:39;13.88;;;7.72;;
59169;SDS011;52474;52.236;5.114;2023-04-01T20:38:05;12.57;;;7.47;;
59169;SDS011;52474;52.236;5.114;2023-04-01T20:40:47;11.13;;;7.47;;
59169;SDS011;52474;52.236;5.114;2023-04-01T20:48:56;11.15;;;6.63;;
59169;SDS011;52474;52.236;5.114;2023-04-01T20:51:34;10.18;;;5.72;;
59169;SDS011;52474;52.236;5.114;2023-04-01T20:54:31;11.25;;;6.40;;
59169;SDS011;52474;52.236;5.114;2023-04-01T20:57:22;11.13;;;6.93;;
59169;SDS011;52474;52.236;5.114;2023-04-01T21:00:15;9.85;;;6.18;;
59169;SDS011;52474;52.236;5.114;2023-04-01T21:08:36;9.68;;;6.57;;
59169;SDS011;52474;52.236;5.114;2023-04-01T21:14:05;10.23;;;7.32;;
59169;SDS011;52474;52.236;5.114;2023-04-01T21:22:24;10.68;;;6.43;;
59169;SDS011;52474;52.236;5.114;2023-04-01T21:27:48;10.15;;;6.88;;
59169;SDS011;52474;52.236;5.114;2023-04-01T21:30:43;11.27;;;7.35;;
59169;SDS011;52474;52.236;5.114;2023-04-01T21:39:12;12.95;;;7.43;;
59169;SDS011;52474;52.236;5.114;2023-04-01T22:07:19;12.02;;;6.93;;
59169;SDS011;52474;52.236;5.114;2023-04-01T22:12:45;14.27;;;7.68;;
59169;SDS011;52474;52.236;5.114;2023-04-01T22:15:17;12.80;;;7.40;;
59169;SDS011;52474;52.236;5.114;2023-04-01T22:21:26;10.35;;;6.95;;
59169;SDS011;52474;52.236;5.114;2023-04-01T22:29:30;12.45;;;7.15;;
59169;SDS011;52474;52.236;5.114;2023-04-01T22:32:05;11.82;;;7.43;;
59169;SDS011;52474;52.236;5.114;2023-04-01T22:34:43;15.95;;;8.35;;
59169;SDS011;52474;52.236;5.114;2023-04-01T22:37:33;17.73;;;8.43;;
59169;SDS011;52474;52.236;5.114;2023-04-01T22:41:05;12.50;;;7.95;;
59169;SDS011;52474;52.236;5.114;2023-04-01T22:43:11;11.95;;;7.22;;
59169;SDS011;52474;52.236;5.114;2023-04-01T22:48:25;10.95;;;6.40;;
59169;SDS011;52474;52.236;5.114;2023-04-01T22:51:17;15.38;;;7.63;;
59169;SDS011;52474;52.236;5.114;2023-04-01T22:56:20;14.43;;;8.00;;
59169;SDS011;52474;52.236;5.114;2023-04-01T22:58:52;16.05;;;8.48;;
59169;SDS011;52474;52.236;5.114;2023-04-01T23:01:27;14.63;;;8.20;;
59169;SDS011;52474;52.236;5.114;2023-04-01T23:03:58;12.10;;;6.70;;
59169;SDS011;52474;52.236;5.114;2023-04-01T23:06:28;15.32;;;8.30;;
59169;SDS011;52474;52.236;5.114;2023-04-01T23:09:17;17.02;;;9.18;;
59169;SDS011;52474;52.236;5.114;2023-04-01T23:11:47;15.63;;;8.40;;
59169;SDS011;52474;52.236;5.114;2023-04-01T23:19:49;13.48;;;6.93;;
59169;SDS011;52474;52.236;5.114;2023-04-01T23:38:14;15.80;;;8.93;;
59169;SDS011;52474;52.236;5.114;2023-04-01T23:40:41;17.65;;;9.10;;
59169;SDS011;52474;52.236;5.114;2023-04-01T23:43:14;16.63;;;8.65;;
59169;SDS011;52474;52.236;5.114;2023-04-01T23:45:46;18.27;;;8.65;;
59169;SDS011;52474;52.236;5.114;2023-04-01T23:48:13;20.55;;;9.77;;
59169;SDS011;52474;52.236;5.114;2023-04-01T23:50:42;17.15;;;9.88;;
59169;SDS011;52474;52.236;5.114;2023-04-01T23:53:12;18.35;;;9.27;;
59169;SDS011;52474;52.236;5.114;2023-04-01T23:55:59;22.35;;;10.07;;
59169;SDS011;52474;52.236;5.114;2023-04-01T23:58:36;22.92;;;9.95;;
